createdAt,value
2022-12-26T00:04:48.949Z,99106.00
2022-12-26T00:08:20.271Z,99101.00
2022-12-26T00:10:55.074Z,99103.00
2022-12-26T00:13:46.531Z,99096.00
2022-12-26T00:19:38.744Z,99103.00
2022-12-26T00:22:23.009Z,99097.00
2022-12-26T00:25:21.253Z,99091.00
2022-12-26T00:28:23.645Z,99081.00
2022-12-26T00:31:30.491Z,99091.00
2022-12-26T00:34:33.402Z,99094.00
2022-12-26T00:37:36.833Z,99087.00
2022-12-26T00:40:24.283Z,99102.00
2022-12-26T00:43:26.832Z,99097.00
2022-12-26T00:46:17.810Z,99109.00
2022-12-26T00:49:19.563Z,99110.00
2022-12-26T00:52:19.019Z,99104.00
2022-12-26T00:55:06.551Z,99098.00
2022-12-26T00:57:47.017Z,99107.00
2022-12-26T01:00:21.187Z,99107.00
2022-12-26T01:06:12.369Z,99101.00
2022-12-26T01:08:56.124Z,99103.00
2022-12-26T01:12:12.295Z,99109.00
2022-12-26T01:21:37.032Z,99123.00
2022-12-26T01:24:19.616Z,99125.00
2022-12-26T01:27:09.092Z,99131.00
2022-12-26T01:30:08.953Z,99127.00
2022-12-26T01:33:04.169Z,99133.00
2022-12-26T01:35:50.377Z,99115.00
2022-12-26T01:39:06.969Z,99109.00
2022-12-26T01:41:53.180Z,99105.00
2022-12-26T01:45:09.269Z,99102.00
2022-12-26T01:51:47.423Z,99138.00
2022-12-26T01:57:56.195Z,99153.00
2022-12-26T02:00:49.738Z,99156.00
2022-12-26T02:03:46.628Z,99145.00
2022-12-26T02:06:53.696Z,99147.00
2022-12-26T02:09:37.169Z,99165.00
2022-12-26T02:12:38.693Z,99169.00
2022-12-26T02:15:31.029Z,99154.00
2022-12-26T02:18:17.563Z,99164.00
2022-12-26T02:21:13.782Z,99181.00
2022-12-26T02:24:28.496Z,99173.00
2022-12-26T02:27:45.010Z,99163.00
2022-12-26T02:30:49.615Z,99162.00
2022-12-26T02:33:34.949Z,99157.00
2022-12-26T02:36:29.587Z,99156.00
2022-12-26T02:39:43.579Z,99154.00
2022-12-26T02:42:36.125Z,99150.00
2022-12-26T02:56:21.065Z,99129.00
2022-12-26T02:59:55.382Z,99128.00
2022-12-26T03:03:26.721Z,99127.00
2022-12-26T03:09:55.410Z,99123.00
2022-12-26T03:13:00.517Z,99126.00
2022-12-26T03:15:57.394Z,99114.00
2022-12-26T03:22:03.470Z,99118.00
2022-12-26T03:25:08.633Z,99127.00
2022-12-26T03:28:24.385Z,99121.00
2022-12-26T03:31:12.893Z,99106.00
2022-12-26T03:34:15.963Z,99110.00
2022-12-26T03:40:41.707Z,99119.00
2022-12-26T03:43:42.520Z,99127.00
2022-12-26T03:46:51.837Z,99114.00
2022-12-26T03:50:16.142Z,99119.00
2022-12-26T03:53:38.941Z,99118.00
2022-12-26T03:56:54.649Z,99119.00
2022-12-26T04:00:09.569Z,99113.00
2022-12-26T04:03:13.092Z,99116.00
2022-12-26T04:06:23.857Z,99114.00
2022-12-26T04:09:33.168Z,99109.00
2022-12-26T04:12:33.453Z,99100.00
2022-12-26T04:15:58.529Z,99108.00
2022-12-26T04:19:24.340Z,99116.00
2022-12-26T04:23:18.352Z,99120.00
2022-12-26T04:26:14.489Z,99103.00
2022-12-26T04:29:27.313Z,99101.00
2022-12-26T04:32:43.023Z,99107.00
2022-12-26T04:35:52.439Z,99120.00
2022-12-26T04:39:02.520Z,99117.00
2022-12-26T04:42:03.244Z,99122.00
2022-12-26T04:48:06.038Z,99125.00
2022-12-26T04:51:15.978Z,99136.00
2022-12-26T04:54:04.597Z,99119.00
2022-12-26T04:56:44.634Z,99126.00
2022-12-26T05:02:37.802Z,99129.00
2022-12-26T05:09:04.636Z,99124.00
2022-12-26T05:12:19.324Z,99126.00
2022-12-26T05:15:10.491Z,99125.00
2022-12-26T05:18:10.628Z,99117.00
2022-12-26T05:21:10.495Z,99121.00
2022-12-26T05:24:15.612Z,99128.00
2022-12-26T05:30:26.019Z,99109.00
2022-12-26T05:33:20.608Z,99115.00
2022-12-26T05:36:13.319Z,99109.00
2022-12-26T05:38:57.087Z,99119.00
2022-12-26T05:45:09.098Z,99115.00
2022-12-26T05:48:07.499Z,99115.00
2022-12-26T05:51:02.893Z,99109.00
2022-12-26T05:53:36.624Z,99117.00
2022-12-26T05:56:23.955Z,99097.00
2022-12-26T05:59:17.210Z,99112.00
2022-12-26T06:02:20.646Z,99105.00
2022-12-26T06:08:58.370Z,99108.00
2022-12-26T06:11:57.239Z,99098.00
2022-12-26T06:14:32.749Z,99110.00
2022-12-26T06:17:05.435Z,99091.00
2022-12-26T06:20:08.381Z,99086.00
2022-12-26T06:22:57.908Z,99090.00
2022-12-26T06:25:59.255Z,99091.00
2022-12-26T06:28:53.893Z,99081.00
2022-12-26T06:32:06.279Z,99084.00
2022-12-26T06:37:46.865Z,99083.00
2022-12-26T06:40:32.440Z,99079.00
2022-12-26T06:43:20.127Z,99075.00
2022-12-26T06:46:16.030Z,99085.00
2022-12-26T06:48:51.181Z,99092.00
2022-12-26T06:52:05.963Z,99092.00
2022-12-26T06:55:15.000Z,99084.00
2022-12-26T06:57:50.796Z,99084.00
2022-12-26T07:00:40.516Z,99077.00
2022-12-26T07:06:34.005Z,99086.00
2022-12-26T07:12:23.456Z,99091.00
2022-12-26T07:15:50.870Z,99092.00
2022-12-26T07:18:03.563Z,99090.00
2022-12-26T07:20:57.666Z,99089.00
2022-12-26T07:23:52.624Z,99101.00
2022-12-26T07:26:35.022Z,99096.00
2022-12-26T07:34:57.924Z,99115.00
2022-12-26T07:37:58.376Z,99133.00
2022-12-26T07:41:00.842Z,99132.00
2022-12-26T07:43:58.328Z,99143.00
2022-12-26T07:49:45.772Z,99169.00
2022-12-26T07:52:38.907Z,99161.00
2022-12-26T07:58:16.851Z,99177.00
2022-12-26T08:04:19.264Z,99197.00
2022-12-26T08:07:16.067Z,99196.00
2022-12-26T08:19:09.469Z,99238.00
2022-12-26T08:21:42.188Z,99252.00
2022-12-26T08:24:52.660Z,99253.00
2022-12-26T08:27:41.509Z,99243.00
2022-12-26T08:36:47.823Z,99263.00
2022-12-26T08:39:33.456Z,99278.00
2022-12-26T08:43:11.726Z,99286.00
2022-12-26T08:46:07.864Z,99290.00
2022-12-26T08:49:06.364Z,99295.00
2022-12-26T08:51:54.285Z,99305.00
2022-12-26T09:04:53.350Z,99339.00
2022-12-26T09:11:41.023Z,99362.00
2022-12-26T09:14:44.688Z,99361.00
2022-12-26T09:18:04.082Z,99365.00
2022-12-26T09:27:22.708Z,99398.00
2022-12-26T09:30:01.715Z,99396.00
2022-12-26T09:33:22.868Z,99421.00
2022-12-26T09:36:14.843Z,99434.00
2022-12-26T09:39:18.611Z,99427.00
2022-12-26T09:46:02.965Z,99435.00
2022-12-26T09:53:54.269Z,99453.00
2022-12-26T09:57:15.122Z,99446.00
2022-12-26T10:06:46.082Z,99443.00
2022-12-26T10:13:34.237Z,99426.00
2022-12-26T10:20:52.372Z,99431.00
2022-12-26T10:24:12.535Z,99414.00
2022-12-26T10:30:44.221Z,99403.00
2022-12-26T10:37:16.807Z,99407.00
2022-12-26T10:44:03.469Z,99422.00
2022-12-26T10:47:12.309Z,99420.00
2022-12-26T10:52:44.939Z,99412.00
2022-12-26T10:55:31.889Z,99407.00
2022-12-26T10:58:43.812Z,99428.00
2022-12-26T11:01:50.964Z,99437.00
2022-12-26T11:05:15.994Z,99436.00
2022-12-26T11:07:54.219Z,99440.00
2022-12-26T11:10:24.268Z,99437.00
2022-12-26T11:13:34.652Z,99450.00
2022-12-26T11:16:36.880Z,99413.00
2022-12-26T11:20:03.111Z,99392.00
2022-12-26T11:29:47.217Z,99420.00
2022-12-26T11:32:26.014Z,99418.00
2022-12-26T11:35:15.558Z,99433.00
2022-12-26T11:42:09.769Z,99426.00
2022-12-26T11:48:08.104Z,99407.00
2022-12-26T11:51:00.695Z,99415.00
2022-12-26T11:53:34.510Z,99431.00
2022-12-26T12:02:44.956Z,99422.00
2022-12-26T12:05:36.975Z,99403.00
2022-12-26T12:08:30.873Z,99401.00
2022-12-26T12:11:27.288Z,99405.00
2022-12-26T12:13:58.655Z,99417.00
2022-12-26T12:17:03.397Z,99423.00
2022-12-26T12:23:17.626Z,99404.00
2022-12-26T12:26:25.783Z,99415.00
2022-12-26T12:29:23.663Z,99404.00
2022-12-26T12:36:23.880Z,99385.00
2022-12-26T12:39:31.048Z,99389.00
2022-12-26T12:42:34.845Z,99385.00
2022-12-26T12:45:16.407Z,99392.00
2022-12-26T12:47:55.776Z,99383.00
2022-12-26T12:50:30.453Z,99370.00
2022-12-26T12:53:51.122Z,99394.00
2022-12-26T13:00:04.908Z,99377.00
2022-12-26T13:03:25.962Z,99393.00
2022-12-26T13:07:08.201Z,99393.00
2022-12-26T13:10:13.973Z,99388.00
2022-12-26T13:13:28.902Z,99373.00
2022-12-26T13:16:55.935Z,99377.00
2022-12-26T13:20:03.484Z,99380.00
2022-12-26T13:23:33.851Z,99380.00
2022-12-26T13:29:59.503Z,99362.00
2022-12-26T13:36:14.265Z,99360.00
2022-12-26T13:42:41.297Z,99358.00
2022-12-26T13:46:09.311Z,99347.00
2022-12-26T13:49:10.915Z,99350.00
2022-12-26T13:51:51.795Z,99342.00
2022-12-26T13:54:30.628Z,99351.00
2022-12-26T13:57:44.220Z,99359.00
2022-12-26T14:00:49.063Z,99348.00
2022-12-26T14:07:51.291Z,99370.00
2022-12-26T14:10:45.600Z,99369.00
2022-12-26T14:13:39.829Z,99351.00
2022-12-26T14:16:42.889Z,99355.00
2022-12-26T14:19:29.711Z,99343.00
2022-12-26T14:22:57.506Z,99348.00
2022-12-26T14:26:14.299Z,99352.00
2022-12-26T14:29:15.427Z,99346.00
2022-12-26T14:32:19.545Z,99339.00
2022-12-26T14:35:47.940Z,99350.00
2022-12-26T14:39:04.957Z,99348.00
2022-12-26T14:42:36.887Z,99349.00
2022-12-26T14:46:30.914Z,99338.00
2022-12-26T14:49:21.898Z,99339.00
2022-12-26T14:55:39.939Z,99354.00
2022-12-26T15:02:56.233Z,99353.00
2022-12-26T15:05:53.593Z,99349.00
2022-12-26T15:09:07.776Z,99353.00
2022-12-26T15:12:33.247Z,99341.00
2022-12-26T15:18:50.940Z,99355.00
2022-12-26T15:22:16.224Z,99343.00
2022-12-26T15:25:21.059Z,99347.00
2022-12-26T15:28:58.424Z,99350.00
2022-12-26T15:32:07.836Z,99346.00
2022-12-26T15:35:36.861Z,99344.00
2022-12-26T15:38:40.022Z,99355.00
2022-12-26T15:41:37.868Z,99345.00
2022-12-26T15:44:16.809Z,99345.00
2022-12-26T15:46:50.996Z,99352.00
2022-12-26T15:49:23.952Z,99353.00
2022-12-26T15:51:56.160Z,99351.00
2022-12-26T15:54:39.627Z,99344.00
2022-12-26T15:57:18.651Z,99354.00
2022-12-26T15:59:59.632Z,99348.00
2022-12-26T16:02:26.466Z,99363.00
2022-12-26T16:05:44.661Z,99356.00
2022-12-26T16:11:23.298Z,99352.00
2022-12-26T16:14:25.822Z,99343.00
2022-12-26T16:21:27.442Z,99351.00
2022-12-26T16:24:27.461Z,99344.00
2022-12-26T16:27:35.335Z,99341.00
2022-12-26T16:37:24.626Z,99340.00
2022-12-26T16:40:37.631Z,99336.00
2022-12-26T16:43:41.398Z,99335.00
2022-12-26T16:46:48.784Z,99327.00
2022-12-26T16:50:02.351Z,99352.00
2022-12-26T16:53:03.974Z,99346.00
2022-12-26T16:59:04.085Z,99356.00
2022-12-26T17:02:50.652Z,99331.00
2022-12-26T17:05:52.791Z,99351.00
2022-12-26T17:08:57.275Z,99360.00
2022-12-26T17:11:30.583Z,99342.00
2022-12-26T17:21:05.903Z,99367.00
2022-12-26T17:24:20.621Z,99378.00
2022-12-26T17:27:24.379Z,99385.00
2022-12-26T17:30:18.666Z,99386.00
2022-12-26T17:33:23.589Z,99403.00
2022-12-26T17:43:58.719Z,99429.00
2022-12-26T17:47:26.629Z,99444.00
2022-12-26T17:53:35.583Z,99461.00
2022-12-26T17:56:29.792Z,99495.00
2022-12-26T17:59:13.652Z,99497.00
2022-12-26T18:01:56.057Z,99509.00
2022-12-26T18:04:40.405Z,99508.00
2022-12-26T18:07:43.248Z,99524.00
2022-12-26T18:14:06.500Z,99532.00
2022-12-26T18:23:10.027Z,99550.00
2022-12-26T18:25:38.011Z,99565.00
2022-12-26T18:28:24.071Z,99575.00
2022-12-26T18:37:43.570Z,99607.00
2022-12-26T18:41:09.689Z,99619.00
2022-12-26T18:43:56.933Z,99602.00
2022-12-26T18:46:45.990Z,99605.00
2022-12-26T18:50:20.584Z,99615.00
2022-12-26T18:52:59.874Z,99620.00
2022-12-26T18:55:52.457Z,99626.00
2022-12-26T19:04:43.435Z,99623.00
2022-12-26T19:08:03.076Z,99622.00
2022-12-26T19:11:19.544Z,99634.00
2022-12-26T19:13:46.958Z,99643.00
2022-12-26T19:16:51.042Z,99645.00
2022-12-26T19:27:16.595Z,99651.00
2022-12-26T19:29:41.656Z,99661.00
2022-12-26T19:33:04.861Z,99657.00
2022-12-26T19:35:47.596Z,99660.00
2022-12-26T19:38:14.421Z,99680.00
2022-12-26T19:41:05.263Z,99675.00
2022-12-26T19:43:35.175Z,99695.00
2022-12-26T19:46:12.570Z,99695.00
2022-12-26T19:48:39.631Z,99700.00
2022-12-26T19:51:09.227Z,99712.00
2022-12-26T19:53:48.177Z,99706.00
2022-12-26T19:56:22.434Z,99719.00
2022-12-26T19:58:56.161Z,99725.00
2022-12-26T20:01:38.887Z,99723.00
2022-12-26T20:04:26.482Z,99717.00
2022-12-26T20:07:19.193Z,99735.00
2022-12-26T20:10:04.945Z,99734.00
2022-12-26T20:12:52.616Z,99740.00
2022-12-26T20:15:21.797Z,99750.00
2022-12-26T20:17:52.949Z,99761.00
2022-12-26T20:26:56.094Z,99779.00
2022-12-26T20:29:22.933Z,99794.00
2022-12-26T20:31:49.865Z,99803.00
2022-12-26T20:34:32.175Z,99824.00
2022-12-26T20:37:04.812Z,99829.00
2022-12-26T20:39:32.116Z,99826.00
2022-12-26T20:41:59.228Z,99829.00
2022-12-26T20:44:26.168Z,99830.00
2022-12-26T20:46:53.187Z,99837.00
2022-12-26T20:49:20.023Z,99836.00
2022-12-26T20:54:53.635Z,99845.00
2022-12-26T20:57:20.489Z,99851.00
2022-12-26T20:59:47.387Z,99858.00
2022-12-26T21:02:14.559Z,99872.00
2022-12-26T21:04:41.582Z,99869.00
2022-12-26T21:07:08.364Z,99879.00
2022-12-26T21:09:36.225Z,99866.00
2022-12-26T21:12:06.322Z,99890.00
2022-12-26T21:14:33.096Z,99894.00
2022-12-26T21:17:00.180Z,99894.00
2022-12-26T21:19:29.499Z,99890.00
2022-12-26T21:21:57.246Z,99901.00
2022-12-26T21:24:35.961Z,99908.00
2022-12-26T21:27:04.226Z,99913.00
2022-12-26T21:30:13.826Z,99915.00
2022-12-26T21:32:51.301Z,99925.00
2022-12-26T21:35:41.467Z,99936.00
2022-12-26T21:38:31.857Z,99940.00
2022-12-26T21:41:18.435Z,99944.00
2022-12-26T21:44:17.704Z,99952.00
2022-12-26T21:46:59.193Z,99945.00
2022-12-26T21:49:33.469Z,99965.00
2022-12-26T21:55:42.634Z,99974.00
2022-12-26T21:58:11.690Z,99980.00
2022-12-26T22:00:57.639Z,99982.00
2022-12-26T22:04:01.638Z,99988.00
2022-12-26T22:09:34.729Z,100003.00
2022-12-26T22:12:38.336Z,100004.00
2022-12-26T22:15:45.996Z,100000.00
2022-12-26T22:18:27.364Z,100014.00
2022-12-26T22:21:01.433Z,100001.00
2022-12-26T22:23:42.703Z,100001.00
2022-12-26T22:26:38.794Z,100027.00
2022-12-26T22:29:24.584Z,100026.00
2022-12-26T22:35:36.943Z,100023.00
2022-12-26T22:38:19.069Z,100034.00
2022-12-26T22:41:10.324Z,100046.00
2022-12-26T22:44:04.530Z,100045.00
2022-12-26T22:46:48.553Z,100052.00
2022-12-26T22:49:50.022Z,100047.00
2022-12-26T22:52:41.946Z,100065.00
2022-12-26T22:55:25.232Z,100060.00
2022-12-26T22:58:02.554Z,100066.00
2022-12-26T23:00:45.011Z,100073.00
2022-12-26T23:03:28.723Z,100077.00
2022-12-26T23:06:13.715Z,100087.00
2022-12-26T23:15:28.552Z,100098.00
2022-12-26T23:18:34.585Z,100104.00
2022-12-26T23:21:51.243Z,100113.00
2022-12-26T23:24:38.196Z,100115.00
2022-12-26T23:27:47.584Z,100113.00
2022-12-26T23:33:21.295Z,100122.00
2022-12-26T23:41:51.423Z,100131.00
2022-12-26T23:44:39.661Z,100134.00
2022-12-26T23:50:16.150Z,100147.00
2022-12-26T23:53:00.764Z,100148.00
2022-12-26T23:58:38.028Z,100144.00
